sensor_id;sensor_type;location;lat;lon;timestamp;pressure;altitude;pressure_sealevel;temperature;humidity
36354;BME280;22383;51.114;13.666;2023-07-31T00:02:22;68782.53;;;14.44;100.00
36354;BME280;22383;51.114;13.666;2023-07-31T00:08:00;68789.38;;;14.50;100.00
36354;BME280;22383;51.114;13.666;2023-07-31T00:10:37;68782.00;;;14.43;100.00
36354;BME280;22383;51.114;13.666;2023-07-31T00:14:11;68785.97;;;14.47;100.00
36354;BME280;22383;51.114;13.666;2023-07-31T00:16:49;68789.00;;;14.52;100.00
36354;BME280;22383;51.114;13.666;2023-07-31T00:19:51;68802.47;;;14.62;100.00
36354;BME280;22383;51.114;13.666;2023-07-31T00:22:36;68801.72;;;14.59;100.00
36354;BME280;22383;51.114;13.666;2023-07-31T00:25:13;68808.16;;;14.67;100.00
36354;BME280;22383;51.114;13.666;2023-07-31T00:28:29;68814.63;;;14.68;100.00
36354;BME280;22383;51.114;13.666;2023-07-31T00:31:33;68817.25;;;14.75;100.00
36354;BME280;22383;51.114;13.666;2023-07-31T00:34:42;68816.13;;;14.74;100.00
36354;BME280;22383;51.114;13.666;2023-07-31T00:37:20;68813.84;;;14.72;100.00
36354;BME280;22383;51.114;13.666;2023-07-31T00:40:12;68817.66;;;14.73;100.00
36354;BME280;22383;51.114;13.666;2023-07-31T00:43:03;68802.47;;;14.62;100.00
36354;BME280;22383;51.114;13.666;2023-07-31T00:45:59;68799.06;;;14.59;100.00
36354;BME280;22383;51.114;13.666;2023-07-31T00:49:02;68802.28;;;14.59;100.00
36354;BME280;22383;51.114;13.666;2023-07-31T00:51:46;68797.34;;;14.57;100.00
36354;BME280;22383;51.114;13.666;2023-07-31T00:54:34;68819.53;;;14.77;100.00
36354;BME280;22383;51.114;13.666;2023-07-31T00:57:19;68818.56;;;14.79;100.00
36354;BME280;22383;51.114;13.666;2023-07-31T01:01:10;68824.06;;;14.81;100.00
36354;BME280;22383;51.114;13.666;2023-07-31T01:03:54;68811.56;;;14.70;100.00
36354;BME280;22383;51.114;13.666;2023-07-31T01:07:11;68818.97;;;14.77;100.00
36354;BME280;22383;51.114;13.666;2023-07-31T01:10:15;68822.38;;;14.80;100.00
36354;BME280;22383;51.114;13.666;2023-07-31T01:13:18;68827.50;;;14.84;100.00
36354;BME280;22383;51.114;13.666;2023-07-31T01:17:02;68832.44;;;14.86;100.00
36354;BME280;22383;51.114;13.666;2023-07-31T01:20:40;68821.81;;;14.79;100.00
36354;BME280;22383;51.114;13.666;2023-07-31T01:26:39;68817.44;;;14.78;100.00
36354;BME280;22383;51.114;13.666;2023-07-31T01:29:53;68803.22;;;14.65;100.00
36354;BME280;22383;51.114;13.666;2023-07-31T01:32:47;68818.38;;;14.76;100.00
36354;BME280;22383;51.114;13.666;2023-07-31T01:35:31;68810.81;;;14.67;100.00
36354;BME280;22383;51.114;13.666;2023-07-31T01:38:51;68801.50;;;14.63;100.00
36354;BME280;22383;51.114;13.666;2023-07-31T01:41:56;68807.19;;;14.68;100.00
36354;BME280;22383;51.114;13.666;2023-07-31T01:44:40;68825.06;;;14.80;100.00
36354;BME280;22383;51.114;13.666;2023-07-31T01:47:36;68826.94;;;14.84;100.00
36354;BME280;22383;51.114;13.666;2023-07-31T01:51:20;68828.06;;;14.85;100.00
36354;BME280;22383;51.114;13.666;2023-07-31T01:54:02;68823.50;;;14.81;100.00
36354;BME280;22383;51.114;13.666;2023-07-31T01:57:01;68818.38;;;14.76;100.00
36354;BME280;22383;51.114;13.666;2023-07-31T01:59:49;68834.31;;;14.90;100.00
36354;BME280;22383;51.114;13.666;2023-07-31T02:02:46;68845.50;;;14.98;100.00
36354;BME280;22383;51.114;13.666;2023-07-31T02:05:57;68838.47;;;14.97;100.00
36354;BME280;22383;51.114;13.666;2023-07-31T02:09:04;68841.72;;;14.97;100.00
36354;BME280;22383;51.114;13.666;2023-07-31T02:12:13;68839.44;;;14.95;100.00
36354;BME280;22383;51.114;13.666;2023-07-31T02:15:16;68842.28;;;14.98;100.00
36354;BME280;22383;51.114;13.666;2023-07-31T02:18:47;68834.88;;;14.91;100.00
36354;BME280;22383;51.114;13.666;2023-07-31T02:21:46;68844.00;;;14.99;100.00
36354;BME280;22383;51.114;13.666;2023-07-31T02:24:33;68855.19;;;15.07;100.00
36354;BME280;22383;51.114;13.666;2023-07-31T02:27:34;68858.97;;;15.15;100.00
36354;BME280;22383;51.114;13.666;2023-07-31T02:30:36;68861.03;;;15.15;100.00
36354;BME280;22383;51.114;13.666;2023-07-31T02:33:12;68868.63;;;15.24;100.00
36354;BME280;22383;51.114;13.666;2023-07-31T02:36:08;68871.88;;;15.24;100.00
36354;BME280;22383;51.114;13.666;2023-07-31T02:39:13;68877.34;;;15.34;100.00
36354;BME280;22383;51.114;13.666;2023-07-31T02:41:53;68877.56;;;15.29;100.00
36354;BME280;22383;51.114;13.666;2023-07-31T02:44:39;68874.69;;;15.27;100.00
36354;BME280;22383;51.114;13.666;2023-07-31T02:47:18;68883.81;;;15.35;100.00
36354;BME280;22383;51.114;13.666;2023-07-31T02:50:25;68891.22;;;15.42;100.00
36354;BME280;22383;51.114;13.666;2023-07-31T02:53:08;68880.03;;;15.34;100.00
36354;BME280;22383;51.114;13.666;2023-07-31T02:55:50;68881.38;;;15.30;100.00
36354;BME280;22383;51.114;13.666;2023-07-31T02:59:07;68880.75;;;15.37;100.00
36354;BME280;22383;51.114;13.666;2023-07-31T03:01:43;68877.38;;;15.27;100.00
36354;BME280;22383;51.114;13.666;2023-07-31T03:04:42;68873.00;;;15.25;100.00
36354;BME280;22383;51.114;13.666;2023-07-31T03:07:25;68887.63;;;15.36;100.00
36354;BME280;22383;51.114;13.666;2023-07-31T03:10:10;68874.69;;;15.27;100.00
36354;BME280;22383;51.114;13.666;2023-07-31T03:13:34;68870.34;;;15.25;100.00
36354;BME280;22383;51.114;13.666;2023-07-31T03:19:54;68855.94;;;15.10;100.00
36354;BME280;22383;51.114;13.666;2023-07-31T03:23:21;68855.75;;;15.07;100.00
36354;BME280;22383;51.114;13.666;2023-07-31T03:26:18;68856.91;;;15.08;100.00
36354;BME280;22383;51.114;13.666;2023-07-31T03:29:00;68851.38;;;15.06;100.00
36354;BME280;22383;51.114;13.666;2023-07-31T03:31:56;68855.38;;;15.09;100.00
36354;BME280;22383;51.114;13.666;2023-07-31T03:36:10;68843.03;;;15.01;100.00
36354;BME280;22383;51.114;13.666;2023-07-31T03:39:55;68835.84;;;14.89;100.00
36354;BME280;22383;51.114;13.666;2023-07-31T03:43:24;68832.06;;;14.88;100.00
36354;BME280;22383;51.114;13.666;2023-07-31T03:51:15;68785.34;;;14.68;100.00
36354;BME280;22383;51.114;13.666;2023-07-31T04:07:54;68775.53;;;14.35;100.00
36354;BME280;22383;51.114;13.666;2023-07-31T04:41:36;68756.00;;;14.22;100.00
36354;BME280;22383;51.114;13.666;2023-07-31T04:48:51;68756.41;;;14.20;100.00
36354;BME280;22383;51.114;13.666;2023-07-31T04:53:02;68751.28;;;14.15;100.00
36354;BME280;22383;51.114;13.666;2023-07-31T04:57:01;68755.81;;;14.19;100.00
36354;BME280;22383;51.114;13.666;2023-07-31T05:00:07;68761.50;;;14.25;100.00
36354;BME280;22383;51.114;13.666;2023-07-31T05:03:49;68770.25;;;14.28;100.00
36354;BME280;22383;51.114;13.666;2023-07-31T05:07:21;68757.91;;;14.26;100.00
36354;BME280;22383;51.114;13.666;2023-07-31T05:11:31;68777.06;;;14.41;100.00
36354;BME280;22383;51.114;13.666;2023-07-31T05:57:57;68838.13;;;14.91;100.00
36354;BME280;22383;51.114;13.666;2023-07-31T06:43:53;68857.06;;;15.11;100.00
36354;BME280;22383;51.114;13.666;2023-07-31T06:58:39;68865.06;;;15.18;100.00
36354;BME280;22383;51.114;13.666;2023-07-31T07:01:39;68868.06;;;15.23;100.00
36354;BME280;22383;51.114;13.666;2023-07-31T07:04:27;68878.13;;;15.30;100.00
36354;BME280;22383;51.114;13.666;2023-07-31T07:07:21;68880.97;;;15.32;100.00
36354;BME280;22383;51.114;13.666;2023-07-31T07:10:05;68886.84;;;15.40;100.00
36354;BME280;22383;51.114;13.666;2023-07-31T07:13:26;68903.56;;;15.50;100.00
36354;BME280;22383;51.114;13.666;2023-07-31T07:17:04;68892.81;;;15.65;100.00
36354;BME280;22383;51.114;13.666;2023-07-31T07:19:53;68921.56;;;15.72;100.00
36354;BME280;22383;51.114;13.666;2023-07-31T07:23:46;68953.84;;;15.98;100.00
36354;BME280;22383;51.114;13.666;2023-07-31T07:26:37;68963.34;;;16.04;100.00
36354;BME280;22383;51.114;13.666;2023-07-31T07:30:03;68966.94;;;16.10;100.00
36354;BME280;22383;51.114;13.666;2023-07-31T07:32:39;68982.31;;;16.24;100.00
36354;BME280;22383;51.114;13.666;2023-07-31T07:40:31;68981.59;;;16.45;100.00
36354;BME280;22383;51.114;13.666;2023-07-31T07:57:01;69029.75;;;16.69;100.00
36354;BME280;22383;51.114;13.666;2023-07-31T08:00:54;69018.34;;;16.59;100.00
36354;BME280;22383;51.114;13.666;2023-07-31T08:04:31;69032.03;;;16.71;100.00
36354;BME280;22383;51.114;13.666;2023-07-31T08:12:16;69046.09;;;16.81;100.00
36354;BME280;22383;51.114;13.666;2023-07-31T08:15:20;69032.31;;;16.91;100.00
36354;BME280;22383;51.114;13.666;2023-07-31T08:18:56;69050.81;;;16.88;100.00
36354;BME280;22383;51.114;13.666;2023-07-31T08:22:42;69060.91;;;16.95;100.00
36354;BME280;22383;51.114;13.666;2023-07-31T08:26:06;69073.44;;;17.06;100.00
36354;BME280;22383;51.114;13.666;2023-07-31T08:29:03;69061.34;;;17.17;100.00
36354;BME280;22383;51.114;13.666;2023-07-31T08:31:58;69090.53;;;17.22;100.00
36354;BME280;22383;51.114;13.666;2023-07-31T08:42:51;69076.47;;;17.11;100.00
36354;BME280;22383;51.114;13.666;2023-07-31T08:49:37;69059.94;;;16.96;100.00
36354;BME280;22383;51.114;13.666;2023-07-31T08:52:57;69066.19;;;17.02;100.00
36354;BME280;22383;51.114;13.666;2023-07-31T08:56:13;69069.63;;;17.05;100.00
36354;BME280;22383;51.114;13.666;2023-07-31T09:19:51;69055.09;;;17.11;100.00
36354;BME280;22383;51.114;13.666;2023-07-31T09:23:18;69057.91;;;17.14;100.00
36354;BME280;22383;51.114;13.666;2023-07-31T09:26:35;69081.03;;;17.15;100.00
36354;BME280;22383;51.114;13.666;2023-07-31T09:29:30;69085.41;;;17.17;100.00
36354;BME280;22383;51.114;13.666;2023-07-31T09:32:17;69092.81;;;17.24;100.00
36354;BME280;22383;51.114;13.666;2023-07-31T09:43:22;69099.25;;;17.32;100.00
36354;BME280;22383;51.114;13.666;2023-07-31T09:51:04;69089.25;;;17.42;100.00
36354;BME280;22383;51.114;13.666;2023-07-31T09:59:20;69117.50;;;17.48;100.00
36354;BME280;22383;51.114;13.666;2023-07-31T10:02:23;69119.59;;;17.48;100.00
36354;BME280;22383;51.114;13.666;2023-07-31T10:06:16;69125.28;;;17.53;100.00
36354;BME280;22383;51.114;13.666;2023-07-31T10:09:09;69119.59;;;17.48;100.00
36354;BME280;22383;51.114;13.666;2023-07-31T10:13:03;69111.03;;;17.40;100.00
36354;BME280;22383;51.114;13.666;2023-07-31T10:25:57;69136.88;;;17.66;100.00
36354;BME280;22383;51.114;13.666;2023-07-31T10:29:19;69132.28;;;17.62;100.00
36354;BME280;22383;51.114;13.666;2023-07-31T10:32:27;69109.19;;;17.60;100.00
36354;BME280;22383;51.114;13.666;2023-07-31T10:35:13;69154.34;;;17.79;100.00
36354;BME280;22383;51.114;13.666;2023-07-31T10:38:48;69139.97;;;17.88;100.00
36354;BME280;22383;51.114;13.666;2023-07-31T10:41:37;69165.97;;;17.92;100.00
36354;BME280;22383;51.114;13.666;2023-07-31T10:44:13;69171.47;;;17.94;100.00
36354;BME280;22383;51.114;13.666;2023-07-31T10:47:06;69188.97;;;18.08;100.00
36354;BME280;22383;51.114;13.666;2023-07-31T10:53:31;69190.28;;;18.11;100.00
36354;BME280;22383;51.114;13.666;2023-07-31T10:56:38;69201.13;;;18.21;100.00
36354;BME280;22383;51.114;13.666;2023-07-31T10:59:51;69181.00;;;18.25;100.00
36354;BME280;22383;51.114;13.666;2023-07-31T11:03:03;69198.69;;;18.17;100.00
36354;BME280;22383;51.114;13.666;2023-07-31T11:06:15;69212.13;;;18.33;100.00
36354;BME280;22383;51.114;13.666;2023-07-31T11:09:02;69205.84;;;18.28;100.00
36354;BME280;22383;51.114;13.666;2023-07-31T11:11:45;69211.41;;;18.30;100.00
36354;BME280;22383;51.114;13.666;2023-07-31T11:14:57;69203.56;;;18.26;100.00
36354;BME280;22383;51.114;13.666;2023-07-31T11:21:08;69184.19;;;18.08;100.00
36354;BME280;22383;51.114;13.666;2023-07-31T11:24:23;69185.72;;;18.07;100.00
36354;BME280;22383;51.114;13.666;2023-07-31T11:28:21;69191.59;;;18.15;100.00
36354;BME280;22383;51.114;13.666;2023-07-31T11:36:55;69219.38;;;18.38;100.00
36354;BME280;22383;51.114;13.666;2023-07-31T11:48:00;69270.91;;;18.86;100.00
36354;BME280;22383;51.114;13.666;2023-07-31T11:51:26;69264.81;;;19.00;100.00
36354;BME280;22383;51.114;13.666;2023-07-31T12:03:36;69353.47;;;19.58;100.00
36354;BME280;22383;51.114;13.666;2023-07-31T12:07:27;69367.72;;;19.71;100.00
36354;BME280;22383;51.114;13.666;2023-07-31T12:32:33;69432.41;;;20.32;100.00
36354;BME280;22383;51.114;13.666;2023-07-31T12:48:44;69452.56;;;20.52;100.00
36354;BME280;22383;51.114;13.666;2023-07-31T13:05:12;69476.81;;;20.69;100.00
36354;BME280;22383;51.114;13.666;2023-07-31T13:09:17;69484.66;;;20.74;100.00
36354;BME280;22383;51.114;13.666;2023-07-31T13:28:56;69462.69;;;20.59;100.00
36354;BME280;22383;51.114;13.666;2023-07-31T13:31:46;69466.88;;;20.82;100.00
36354;BME280;22383;51.114;13.666;2023-07-31T13:34:35;69504.78;;;20.94;100.00
36354;BME280;22383;51.114;13.666;2023-07-31T13:38:37;69491.44;;;21.04;100.00
36354;BME280;22383;51.114;13.666;2023-07-31T13:41:54;69493.16;;;21.06;100.00
36354;BME280;22383;51.114;13.666;2023-07-31T13:44:56;69509.53;;;21.01;100.00
36354;BME280;22383;51.114;13.666;2023-07-31T13:48:26;69496.38;;;20.89;100.00
36354;BME280;22383;51.114;13.666;2023-07-31T13:54:59;69498.09;;;20.91;100.00
36354;BME280;22383;51.114;13.666;2023-07-31T14:03:17;69501.94;;;20.92;100.00
36354;BME280;22383;51.114;13.666;2023-07-31T14:11:17;69516.41;;;21.07;100.00
36354;BME280;22383;51.114;13.666;2023-07-31T14:19:30;69498.88;;;21.11;100.00
36354;BME280;22383;51.114;13.666;2023-07-31T14:23:02;69524.22;;;21.12;100.00
36354;BME280;22383;51.114;13.666;2023-07-31T14:30:09;69520.56;;;21.30;100.00
36354;BME280;22383;51.114;13.666;2023-07-31T14:37:00;69550.91;;;21.33;100.00
36354;BME280;22383;51.114;13.666;2023-07-31T14:43:22;69519.66;;;21.08;100.00
36354;BME280;22383;51.114;13.666;2023-07-31T14:47:19;69538.09;;;21.27;100.00
36354;BME280;22383;51.114;13.666;2023-07-31T14:50:19;69540.22;;;21.26;100.00
36354;BME280;22383;51.114;13.666;2023-07-31T14:53:46;69518.84;;;21.29;100.00
36354;BME280;22383;51.114;13.666;2023-07-31T15:04:20;69549.53;;;21.37;100.00
36354;BME280;22383;51.114;13.666;2023-07-31T15:11:34;69499.44;;;21.11;100.00
36354;BME280;22383;51.114;13.666;2023-07-31T15:18:59;69496.97;;;20.90;100.00
36354;BME280;22383;51.114;13.666;2023-07-31T15:21:57;69505.94;;;20.95;100.00
36354;BME280;22383;51.114;13.666;2023-07-31T15:25:46;69505.94;;;20.95;100.00
36354;BME280;22383;51.114;13.666;2023-07-31T15:29:06;69496.56;;;21.09;100.00
36354;BME280;22383;51.114;13.666;2023-07-31T15:32:59;69531.22;;;21.21;100.00
36354;BME280;22383;51.114;13.666;2023-07-31T15:36:35;69536.78;;;21.23;100.00
36354;BME280;22383;51.114;13.666;2023-07-31T15:40:09;69513.53;;;21.05;100.00
36354;BME280;22383;51.114;13.666;2023-07-31T15:52:19;69460.41;;;20.57;100.00
36354;BME280;22383;51.114;13.666;2023-07-31T15:58:18;69447.25;;;20.45;100.00
36354;BME280;22383;51.114;13.666;2023-07-31T16:06:18;69418.31;;;20.38;100.00
36354;BME280;22383;51.114;13.666;2023-07-31T16:22:09;69434.69;;;20.34;100.00
36354;BME280;22383;51.114;13.666;2023-07-31T16:26:06;69421.97;;;20.20;100.00
36354;BME280;22383;51.114;13.666;2023-07-31T16:29:19;69422.53;;;20.20;100.00
36354;BME280;22383;51.114;13.666;2023-07-31T16:32:22;69412.25;;;20.11;100.00
36354;BME280;22383;51.114;13.666;2023-07-31T16:36:08;69411.69;;;20.11;100.00
36354;BME280;22383;51.114;13.666;2023-07-31T16:39:55;69413.97;;;20.13;100.00
36354;BME280;22383;51.114;13.666;2023-07-31T16:51:50;69388.28;;;19.90;100.00
36354;BME280;22383;51.114;13.666;2023-07-31T16:55:10;69380.88;;;19.83;100.00
36354;BME280;22383;51.114;13.666;2023-07-31T16:58:14;69385.44;;;19.87;100.00
36354;BME280;22383;51.114;13.666;2023-07-31T17:04:45;69342.41;;;19.70;100.00
36354;BME280;22383;51.114;13.666;2023-07-31T17:08:08;69356.47;;;19.63;100.00
36354;BME280;22383;51.114;13.666;2023-07-31T17:11:46;69352.88;;;19.58;100.00
36354;BME280;22383;51.114;13.666;2023-07-31T17:15:57;69350.78;;;19.58;100.00
36354;BME280;22383;51.114;13.666;2023-07-31T17:19:28;69366.75;;;19.73;100.00
36354;BME280;22383;51.114;13.666;2023-07-31T17:22:34;69367.72;;;19.71;100.00
36354;BME280;22383;51.114;13.666;2023-07-31T17:26:12;69347.00;;;19.74;100.00
36354;BME280;22383;51.114;13.666;2023-07-31T17:29:19;69349.28;;;19.76;100.00
36354;BME280;22383;51.114;13.666;2023-07-31T17:36:19;69390.97;;;19.90;100.00
36354;BME280;22383;51.114;13.666;2023-07-31T17:39:08;69375.50;;;19.83;100.00
36354;BME280;22383;51.114;13.666;2023-07-31T17:41:44;69358.97;;;19.85;100.00
36354;BME280;22383;51.114;13.666;2023-07-31T17:44:45;69392.13;;;19.91;100.00
36354;BME280;22383;51.114;13.666;2023-07-31T17:47:22;69380.28;;;19.82;100.00
36354;BME280;22383;51.114;13.666;2023-07-31T17:50:47;69379.91;;;19.85;100.00
36354;BME280;22383;51.114;13.666;2023-07-31T17:53:32;69368.88;;;19.72;100.00
36354;BME280;22383;51.114;13.666;2023-07-31T18:06:08;69390.56;;;19.92;100.00
36354;BME280;22383;51.114;13.666;2023-07-31T18:18:04;69344.13;;;19.72;100.00
36354;BME280;22383;51.114;13.666;2023-07-31T18:26:15;69356.72;;;19.59;100.00
36354;BME280;22383;51.114;13.666;2023-07-31T18:29:39;69352.47;;;19.60;100.00
36354;BME280;22383;51.114;13.666;2023-07-31T18:34:08;69353.63;;;19.61;100.00
36354;BME280;22383;51.114;13.666;2023-07-31T18:50:59;69323.19;;;19.31;100.00
36354;BME280;22383;51.114;13.666;2023-07-31T19:23:12;69329.47;;;19.37;100.00
36354;BME280;22383;51.114;13.666;2023-07-31T19:30:09;69307.78;;;19.17;100.00
36354;BME280;22383;51.114;13.666;2023-07-31T20:16:28;69266.13;;;18.80;100.00
36354;BME280;22383;51.114;13.666;2023-07-31T20:19:14;69263.28;;;18.77;100.00
36354;BME280;22383;51.114;13.666;2023-07-31T20:21:58;69267.47;;;18.83;100.00
36354;BME280;22383;51.114;13.666;2023-07-31T20:24:31;69261.75;;;18.78;100.00
36354;BME280;22383;51.114;13.666;2023-07-31T20:27:10;69260.44;;;18.75;100.00
36354;BME280;22383;51.114;13.666;2023-07-31T20:29:50;69253.19;;;18.70;100.00
36354;BME280;22383;51.114;13.666;2023-07-31T20:32:41;69248.63;;;18.66;100.00
36354;BME280;22383;51.114;13.666;2023-07-31T20:35:40;69243.50;;;18.62;100.00
36354;BME280;22383;51.114;13.666;2023-07-31T20:38:26;69239.88;;;18.56;100.00
36354;BME280;22383;51.114;13.666;2023-07-31T20:41:57;69221.81;;;18.42;100.00
36354;BME280;22383;51.114;13.666;2023-07-31T20:44:47;69245.59;;;18.61;100.00
36354;BME280;22383;51.114;13.666;2023-07-31T20:51:17;69261.56;;;18.76;100.00
36354;BME280;22383;51.114;13.666;2023-07-31T20:54:24;69260.25;;;18.72;100.00
36354;BME280;22383;51.114;13.666;2023-07-31T20:57:22;69262.31;;;18.79;100.00
36354;BME280;22383;51.114;13.666;2023-07-31T21:00:44;69253.00;;;18.68;100.00
36354;BME280;22383;51.114;13.666;2023-07-31T21:11:20;69225.47;;;18.65;100.00
36354;BME280;22383;51.114;13.666;2023-07-31T21:27:07;69265.00;;;18.79;100.00
36354;BME280;22383;51.114;13.666;2023-07-31T21:30:52;69261.56;;;18.76;100.00
36354;BME280;22383;51.114;13.666;2023-07-31T21:33:53;69231.72;;;18.70;100.00
36354;BME280;22383;51.114;13.666;2023-07-31T21:37:19;69266.91;;;18.83;100.00
36354;BME280;22383;51.114;13.666;2023-07-31T21:40:54;69270.53;;;18.81;100.00
36354;BME280;22383;51.114;13.666;2023-07-31T21:51:21;69261.56;;;18.76;100.00
36354;BME280;22383;51.114;13.666;2023-07-31T21:54:15;69261.75;;;18.78;100.00
36354;BME280;22383;51.114;13.666;2023-07-31T21:57:39;69246.59;;;18.84;100.00
36354;BME280;22383;51.114;13.666;2023-07-31T22:01:17;69269.59;;;18.83;100.00
36354;BME280;22383;51.114;13.666;2023-07-31T22:04:32;69265.16;;;18.81;100.00
36354;BME280;22383;51.114;13.666;2023-07-31T22:07:51;69260.84;;;18.73;100.00
36354;BME280;22383;51.114;13.666;2023-07-31T22:11:31;69255.28;;;18.70;100.00
36354;BME280;22383;51.114;13.666;2023-07-31T22:15:02;69234.03;;;18.73;100.00
36354;BME280;22383;51.114;13.666;2023-07-31T22:18:02;69245.47;;;18.83;100.00
36354;BME280;22383;51.114;13.666;2023-07-31T22:21:18;69279.28;;;18.92;100.00
36354;BME280;22383;51.114;13.666;2023-07-31T22:24:39;69284.41;;;18.96;100.00
36354;BME280;22383;51.114;13.666;2023-07-31T22:28:26;69250.00;;;18.87;100.00
36354;BME280;22383;51.114;13.666;2023-07-31T22:31:32;69276.59;;;18.92;100.00
36354;BME280;22383;51.114;13.666;2023-07-31T22:39:03;69279.84;;;18.92;100.00
36354;BME280;22383;51.114;13.666;2023-07-31T22:42:40;69274.53;;;18.85;100.00
36354;BME280;22383;51.114;13.666;2023-07-31T22:45:52;69263.28;;;18.77;100.00
36354;BME280;22383;51.114;13.666;2023-07-31T22:48:56;69266.91;;;18.83;100.00
36354;BME280;22383;51.114;13.666;2023-07-31T22:52:06;69272.44;;;18.85;100.00
36354;BME280;22383;51.114;13.666;2023-07-31T22:55:07;69267.28;;;18.81;100.00
36354;BME280;22383;51.114;13.666;2023-07-31T22:58:03;69249.19;;;18.67;100.00
36354;BME280;22383;51.114;13.666;2023-07-31T23:01:16;69247.72;;;18.61;100.00
36354;BME280;22383;51.114;13.666;2023-07-31T23:04:38;69234.38;;;18.54;100.00
36354;BME280;22383;51.114;13.666;2023-07-31T23:08:03;69208.94;;;18.50;100.00
36354;BME280;22383;51.114;13.666;2023-07-31T23:11:19;69234.78;;;18.51;100.00
36354;BME280;22383;51.114;13.666;2023-07-31T23:14:12;69204.38;;;18.46;100.00
36354;BME280;22383;51.114;13.666;2023-07-31T23:17:23;69201.53;;;18.43;100.00
36354;BME280;22383;51.114;13.666;2023-07-31T23:21:10;69209.28;;;18.31;100.00
36354;BME280;22383;51.114;13.666;2023-07-31T23:24:04;69198.28;;;18.19;100.00
36354;BME280;22383;51.114;13.666;2023-07-31T23:31:10;69159.50;;;17.84;100.00
36354;BME280;22383;51.114;13.666;2023-07-31T23:34:01;69156.66;;;17.81;100.00
36354;BME280;22383;51.114;13.666;2023-07-31T23:41:17;69134.41;;;17.61;100.00
36354;BME280;22383;51.114;13.666;2023-07-31T23:44:37;69130.03;;;17.60;100.00
36354;BME280;22383;51.114;13.666;2023-07-31T23:47:41;69134.41;;;17.61;100.00
36354;BME280;22383;51.114;13.666;2023-07-31T23:51:04;69116.75;;;17.45;100.00
36354;BME280;22383;51.114;13.666;2023-07-31T23:53:59;69120.56;;;17.46;100.00
36354;BME280;22383;51.114;13.666;2023-07-31T23:56:35;69103.63;;;17.33;100.00
36354;BME280;22383;51.114;13.666;2023-07-31T23:59:26;69099.09;;;17.29;100.00
